Time;durP1;ratioP1;P1;durP2;ratioP2;P2;SDS_P1;SDS_P2;PMS_P1;PMS_P2;Temp;Humidity;BMP_temperature;BMP_pressure;BME280_temperature;BME280_humidity;BME280_pressure;Samples;Min_cycle;Max_cycle;Signal;HPM_P1;HPM_P2
2022/10/27 00:01:16;;;;;;;9.93;6.17;;;;;;;15.46;100.00;102069.84;2615468;36;20035;-58
2022/10/27 00:03:44;;;;;;;11.27;6.60;;;;;;;15.47;100.00;102071.53;2616319;36;20531;-58
2022/10/27 00:06:13;;;;;;;13.90;6.45;;;;;;;15.44;100.00;102081.81;2616374;36;20042;-59
2022/10/27 00:08:41;;;;;;;11.68;6.88;;;;;;;15.51;100.00;102083.81;2615864;31;20049;-58
2022/10/27 00:11:10;;;;;;;11.90;6.33;;;;;;;15.52;100.00;102079.28;2614971;31;20042;-59
2022/10/27 00:13:38;;;;;;;14.00;6.53;;;;;;;15.60;100.00;102082.13;2616447;36;20022;-57
2022/10/27 00:16:10;;;;;;;10.85;6.72;;;;;;;15.62;100.00;102080.16;2615450;31;20046;-58
2022/10/27 00:18:41;;;;;;;8.52;6.00;;;;;;;15.68;100.00;102090.47;2616441;36;20027;-58
2022/10/27 00:21:11;;;;;;;9.45;6.30;;;;;;;15.74;100.00;102091.75;2616533;36;20381;-58
2022/10/27 00:23:40;;;;;;;14.02;6.80;;;;;;;15.72;100.00;102091.91;2615079;36;20419;-58
2022/10/27 00:26:16;;;;;;;11.30;6.45;;;;;;;15.72;100.00;102085.59;2615665;36;20061;-58
2022/10/27 00:28:44;;;;;;;14.02;6.50;;;;;;;15.83;100.00;102088.22;2615499;31;20544;-58
2022/10/27 00:31:14;;;;;;;10.05;6.00;;;;;;;15.88;100.00;102082.38;2614910;36;20022;-58
2022/10/27 00:33:46;;;;;;;10.57;6.65;;;;;;;15.81;100.00;102090.22;2615499;36;20022;-58
2022/10/27 00:36:16;;;;;;;10.65;5.82;;;;;;;15.75;100.00;102088.91;2616506;36;20424;-58
2022/10/27 00:38:45;;;;;;;10.73;5.55;;;;;;;15.82;100.00;102091.09;2615415;36;20038;-58
2022/10/27 00:41:26;;;;;;;9.45;5.53;;;;;;;15.87;100.00;102088.78;2616030;36;20030;-58
2022/10/27 00:43:54;;;;;;;13.13;5.38;;;;;;;15.85;100.00;102096.22;2616415;36;20562;-58
2022/10/27 00:46:33;;;;;;;8.90;5.53;;;;;;;15.73;100.00;102092.75;2615640;36;20373;-57
2022/10/27 00:49:08;;;;;;;8.33;4.93;;;;;;;15.53;100.00;102091.81;2616945;36;20422;-58
2022/10/27 00:51:37;;;;;;;9.40;5.97;;;;;;;15.43;100.00;102089.09;2616822;36;20614;-58
2022/10/27 00:54:06;;;;;;;12.77;5.03;;;;;;;15.37;100.00;102093.22;2615837;31;20566;-58
2022/10/27 00:56:34;;;;;;;8.75;5.28;;;;;;;15.36;100.00;102099.63;2616550;36;20420;-57
2022/10/27 00:59:03;;;;;;;15.65;7.00;;;;;;;15.29;100.00;102100.31;2616434;36;20065;-58
2022/10/27 01:01:33;;;;;;;13.48;5.47;;;;;;;15.36;100.00;102099.63;2615687;36;20029;-57
2022/10/27 01:04:05;;;;;;;12.15;5.50;;;;;;;15.32;100.00;102100.91;2632815;36;20035;-58
2022/10/27 01:06:36;;;;;;;11.35;5.78;;;;;;;15.25;100.00;102105.16;2615428;36;20507;-58
2022/10/27 01:09:05;;;;;;;11.10;5.15;;;;;;;15.19;100.00;102111.13;2616361;36;20034;-59
2022/10/27 01:11:33;;;;;;;;;;;;;;;15.02;100.00;102110.75;2616838;31;20041;-58
2022/10/27 01:14:02;;;;;;;10.57;5.47;;;;;;;15.02;100.00;102110.75;2615244;36;19951;-57
2022/10/27 01:16:38;;;;;;;10.23;5.35;;;;;;;15.06;100.00;102114.06;2615150;36;20065;-58
2022/10/27 01:19:27;;;;;;;11.18;5.28;;;;;;;15.19;100.00;102109.28;2615809;36;20030;-57
2022/10/27 01:22:09;;;;;;;13.50;6.07;;;;;;;15.17;100.00;102105.00;2616046;36;20393;-58
2022/10/27 01:24:50;;;;;;;13.10;5.80;;;;;;;15.15;100.00;102109.66;2616565;36;20062;-57
2022/10/27 01:27:44;;;;;;;15.75;6.40;;;;;;;15.15;100.00;102109.66;2615305;36;20042;-58
2022/10/27 01:30:16;;;;;;;11.50;5.85;;;;;;;15.24;100.00;102109.72;2614914;36;20440;-59
2022/10/27 01:32:59;;;;;;;13.48;6.68;;;;;;;15.28;100.00;102110.28;2615651;36;20040;-59
2022/10/27 01:35:34;;;;;;;15.00;7.43;;;;;;;15.27;100.00;102122.16;2616803;36;20518;-58
2022/10/27 01:38:12;;;;;;;15.95;7.22;;;;;;;15.12;100.00;102124.38;2613836;36;20038;-58
2022/10/27 01:40:47;;;;;;;10.75;6.18;;;;;;;15.04;100.00;102130.47;2616183;36;20038;-58
2022/10/27 01:43:19;;;;;;;14.38;5.88;;;;;;;15.14;100.00;102129.66;2616306;32;20035;-57
2022/10/27 01:45:50;;;;;;;12.18;6.53;;;;;;;15.14;100.00;102126.97;2613996;36;20039;-58
2022/10/27 01:48:21;;;;;;;12.27;6.53;;;;;;;15.11;100.00;102129.94;2616725;36;20431;-58
2022/10/27 01:50:50;;;;;;;17.60;6.50;;;;;;;15.02;100.00;102127.03;2615926;36;20022;-58
2022/10/27 01:53:18;;;;;;;16.03;7.40;;;;;;;15.09;100.00;102126.50;2615434;31;20042;-58
2022/10/27 01:55:58;;;;;;;17.30;7.38;;;;;;;15.16;100.00;102119.53;2616148;36;20660;-58
2022/10/27 01:58:39;;;;;;;16.80;8.13;;;;;;;15.14;100.00;102121.53;2615508;31;20539;-59
2022/10/27 02:01:21;;;;;;;16.83;8.85;;;;;;;15.03;100.00;102117.03;2615856;36;20525;-58
2022/10/27 02:04:00;;;;;;;20.23;8.27;;;;;;;15.01;100.00;102111.75;2616015;36;20030;-58
2022/10/27 02:06:33;;;;;;;23.92;8.95;;;;;;;15.05;100.00;102113.19;2615207;36;20041;-58
2022/10/27 02:09:07;;;;;;;19.00;9.50;;;;;;;15.11;100.00;102105.53;2616056;36;20118;-59
2022/10/27 02:11:41;;;;;;;21.70;9.02;;;;;;;15.02;100.00;102109.91;2616695;36;20404;-58
2022/10/27 02:14:10;;;;;;;16.65;6.85;;;;;;;15.03;100.00;102109.78;2615563;31;20430;-59
2022/10/27 02:16:44;;;;;;;11.80;6.22;;;;;;;15.02;100.00;102113.47;2613213;36;20038;-58
2022/10/27 02:19:20;;;;;;;12.15;6.35;;;;;;;15.07;100.00;102107.66;2612271;36;20563;-58
2022/10/27 02:21:52;;;;;;;11.40;6.13;;;;;;;15.07;100.00;102105.81;2615678;36;20038;-57
2022/10/27 02:24:21;;;;;;;11.52;6.13;;;;;;;15.04;100.00;102097.91;2615732;36;20041;-57
2022/10/27 02:26:54;;;;;;;10.98;5.72;;;;;;;15.14;100.00;102094.41;2615747;36;20045;-58
2022/10/27 02:29:29;;;;;;;12.25;5.78;;;;;;;15.08;100.00;102095.81;2615617;36;20065;-58
2022/10/27 02:32:00;;;;;;;12.65;5.90;;;;;;;15.04;100.00;102092.50;2615224;36;20034;-58
2022/10/27 02:34:33;;;;;;;10.95;5.40;;;;;;;15.03;100.00;102087.22;2616146;31;20038;-58
2022/10/27 02:37:02;;;;;;;15.65;5.30;;;;;;;14.99;100.00;102097.47;2614507;36;20089;-58
2022/10/27 02:39:30;;;;;;;8.95;5.95;;;;;;;14.94;100.00;102086.16;2616799;36;20030;-58
2022/10/27 02:41:58;;;;;;;13.27;5.57;;;;;;;14.90;100.00;102084.75;2615631;36;20038;-58
2022/10/27 02:44:26;;;;;;;14.15;5.53;;;;;;;14.99;100.00;102083.06;2616828;31;20633;-58
2022/10/27 02:46:55;;;;;;;12.50;5.82;;;;;;;14.88;100.00;102093.00;2615647;36;20106;-58
2022/10/27 02:49:23;;;;;;;9.93;5.15;;;;;;;15.04;100.00;102081.66;2617390;36;20073;-58
2022/10/27 02:51:54;;;;;;;14.02;5.68;;;;;;;14.95;100.00;102096.03;2616684;36;20399;-57
2022/10/27 02:54:22;;;;;;;7.97;5.05;;;;;;;14.90;100.00;102101.00;2616869;36;20027;-58
2022/10/27 02:56:51;;;;;;;12.32;5.68;;;;;;;14.93;100.00;102095.31;2615375;36;20041;-57
2022/10/27 02:59:19;;;;;;;8.82;5.18;;;;;;;14.95;100.00;102093.31;2615829;36;20034;-58
2022/10/27 03:01:48;;;;;;;9.02;5.20;;;;;;;14.96;100.00;102084.19;2615609;36;20050;-57
2022/10/27 03:04:16;;;;;;;11.02;5.18;;;;;;;14.94;100.00;102094.28;2616671;31;20042;-58
2022/10/27 03:06:44;;;;;;;13.30;5.83;;;;;;;14.80;100.00;102089.25;2615345;36;20042;-58
2022/10/27 03:09:15;;;;;;;9.03;5.10;;;;;;;14.93;100.00;102081.75;2616736;36;20027;-58
2022/10/27 03:11:43;;;;;;;13.00;6.10;;;;;;;14.89;100.00;102083.00;2615816;31;20023;-58
2022/10/27 03:14:12;;;;;;;8.03;4.83;;;;;;;14.78;100.00;102080.38;2615978;36;20475;-58
2022/10/27 03:16:40;;;;;;;7.83;4.40;;;;;;;14.67;100.00;102065.06;2615759;31;20035;-58
2022/10/27 03:19:08;;;;;;;8.67;4.93;;;;;;;14.77;100.00;102067.84;2616910;36;20042;-58
2022/10/27 03:21:37;;;;;;;10.10;4.67;;;;;;;14.75;100.00;102067.94;2615888;36;20440;-57
2022/10/27 03:24:06;;;;;;;8.88;5.50;;;;;;;14.83;100.00;102061.88;2617446;31;20555;-58
2022/10/27 03:26:36;;;;;;;10.90;5.32;;;;;;;14.80;100.00;102067.56;2616284;36;20034;-58
2022/10/27 03:29:05;;;;;;;9.40;5.22;;;;;;;14.73;100.00;102072.66;2615884;36;20547;-57
2022/10/27 03:31:33;;;;;;;12.07;4.90;;;;;;;14.67;100.00;102067.78;2615297;36;20046;-57
2022/10/27 03:34:01;;;;;;;8.85;4.90;;;;;;;14.66;100.00;102061.50;2616685;36;20039;-57
2022/10/27 03:36:30;;;;;;;11.00;5.32;;;;;;;14.68;100.00;102070.34;2615700;36;20046;-58
2022/10/27 03:38:58;;;;;;;7.60;4.47;;;;;;;14.68;100.00;102064.94;2615665;36;20058;-59
2022/10/27 03:41:26;;;;;;;10.57;4.55;;;;;;;14.62;100.00;102070.88;2616721;36;20065;-57
2022/10/27 03:43:57;;;;;;;10.77;5.07;;;;;;;14.66;100.00;102072.34;2615967;36;20107;-57
2022/10/27 03:46:26;;;;;;;11.32;5.22;;;;;;;14.66;100.00;102075.06;2616049;36;20034;-58
2022/10/27 03:48:55;;;;;;;11.60;5.00;;;;;;;14.86;100.00;102077.88;2616083;36;20033;-57
2022/10/27 03:51:23;;;;;;;9.52;4.97;;;;;;;14.91;100.00;102063.91;2616230;36;20700;-59
2022/10/27 03:53:52;;;;;;;9.35;4.90;;;;;;;14.88;100.00;102070.44;2617074;36;20030;-57
2022/10/27 03:56:20;;;;;;;11.13;4.33;;;;;;;14.80;100.00;102075.69;2616917;36;20073;-57
2022/10/27 03:58:48;;;;;;;9.45;4.43;;;;;;;14.80;100.00;102070.28;2614985;31;20376;-58
2022/10/27 04:01:19;;;;;;;7.80;4.60;;;;;;;14.69;100.00;102074.78;2614505;36;20034;-58
2022/10/27 04:03:49;;;;;;;12.52;5.07;;;;;;;14.67;100.00;102073.19;2616679;36;20292;-58
2022/10/27 04:06:18;;;;;;;8.68;4.85;;;;;;;14.77;100.00;102074.09;2615129;36;20030;-57
2022/10/27 04:08:46;;;;;;;8.50;4.30;;;;;;;14.69;100.00;102077.50;2616454;36;20551;-56
2022/10/27 04:11:14;;;;;;;11.23;4.95;;;;;;;14.67;100.00;102068.63;2616175;36;20296;-57
2022/10/27 04:13:43;;;;;;;9.98;4.25;;;;;;;14.69;100.00;102074.78;2616309;36;20034;-58
2022/10/27 04:16:11;;;;;;;13.63;5.30;;;;;;;14.60;100.00;102088.22;2615287;36;20529;-58
2022/10/27 04:18:42;;;;;;;9.23;4.77;;;;;;;14.58;100.00;102085.66;2616685;31;20574;-57
2022/10/27 04:21:10;;;;;;;9.93;4.68;;;;;;;14.67;100.00;102081.31;2615695;31;20022;-57
2022/10/27 04:23:38;;;;;;;8.60;4.68;;;;;;;14.61;100.00;102085.41;2616542;36;20049;-57
2022/10/27 04:26:07;;;;;;;8.97;4.73;;;;;;;14.62;100.00;102078.13;2616774;31;20467;-59
2022/10/27 04:28:35;;;;;;;7.47;4.25;;;;;;;14.51;100.00;102085.31;2615976;36;20290;-58
2022/10/27 04:31:04;;;;;;;10.27;4.55;;;;;;;14.52;100.00;102092.44;2614777;36;20041;-58
2022/10/27 04:33:32;;;;;;;9.20;3.92;;;;;;;14.49;100.00;102086.44;2616324;36;20037;-57
2022/10/27 04:36:05;;;;;;;9.70;4.23;;;;;;;14.53;100.00;102090.59;2615543;36;20408;-58
2022/10/27 04:38:33;;;;;;;10.07;4.63;;;;;;;14.55;100.00;102096.75;2615837;36;20022;-57
2022/10/27 04:41:02;;;;;;;10.25;4.60;;;;;;;14.49;100.00;102094.56;2616043;36;20045;-57
2022/10/27 04:43:30;;;;;;;10.07;4.70;;;;;;;14.57;100.00;102089.34;2615144;36;20031;-57
2022/10/27 04:45:59;;;;;;;10.45;4.78;;;;;;;14.62;100.00;102099.81;2615623;36;20042;-57
2022/10/27 04:48:27;;;;;;;10.97;4.40;;;;;;;14.51;100.00;102098.00;2616410;36;20034;-57
2022/10/27 04:50:55;;;;;;;17.23;4.72;;;;;;;14.43;100.00;102092.38;2615835;36;20042;-58
2022/10/27 04:53:26;;;;;;;10.87;5.47;;;;;;;14.46;100.00;102098.41;2616185;36;20031;-57
2022/10/27 04:55:56;;;;;;;6.75;4.18;;;;;;;14.58;100.00;102101.91;2615742;36;20058;-55
2022/10/27 04:58:24;;;;;;;11.23;4.70;;;;;;;14.70;100.00;102090.03;2615541;36;20043;-58
2022/10/27 05:00:52;;;;;;;9.83;4.43;;;;;;;14.69;100.00;102082.91;2614929;36;20052;-57
2022/10/27 05:03:21;;;;;;;11.83;4.87;;;;;;;14.69;100.00;102082.91;2614997;31;20038;-58
2022/10/27 05:05:49;;;;;;;15.82;5.07;;;;;;;14.77;100.00;102082.25;2615857;36;20034;-58
2022/10/27 05:08:18;;;;;;;9.73;4.20;;;;;;;14.81;100.00;102080.97;2616343;36;20039;-57
2022/10/27 05:10:49;;;;;;;15.23;5.07;;;;;;;14.73;100.00;102078.06;2614222;36;20042;-57
2022/10/27 05:13:17;;;;;;;8.57;4.72;;;;;;;14.79;100.00;102076.69;2615305;31;20054;-59
2022/10/27 05:15:45;;;;;;;9.53;5.57;;;;;;;14.79;100.00;102077.53;2614086;36;20045;-58
2022/10/27 05:18:14;;;;;;;8.43;4.63;;;;;;;14.85;100.00;102073.44;2613647;36;20065;-58
2022/10/27 05:20:42;;;;;;;7.78;4.25;;;;;;;14.77;100.00;102079.53;2615816;31;20467;-58
2022/10/27 05:23:10;;;;;;;9.73;4.73;;;;;;;14.84;100.00;102069.00;2614825;36;20441;-58
2022/10/27 05:25:39;;;;;;;9.90;4.72;;;;;;;14.75;100.00;102072.50;2613391;31;20716;-58
2022/10/27 05:28:11;;;;;;;12.37;5.50;;;;;;;14.92;100.00;102069.19;2612664;36;20034;-58
2022/10/27 05:30:40;;;;;;;12.48;5.10;;;;;;;14.88;100.00;102068.63;2611930;36;20034;-58
2022/10/27 05:33:08;;;;;;;10.00;4.93;;;;;;;14.87;100.00;102066.88;2613428;36;20061;-58
2022/10/27 05:35:36;;;;;;;9.05;4.53;;;;;;;14.86;100.00;102067.03;2614737;36;20034;-58
2022/10/27 05:38:05;;;;;;;7.40;4.70;;;;;;;14.86;100.00;102061.59;2615398;36;20023;-58
2022/10/27 05:40:33;;;;;;;9.77;4.63;;;;;;;14.82;100.00;102065.56;2616190;36;20069;-58
2022/10/27 05:43:03;;;;;;;9.70;4.65;;;;;;;14.83;100.00;102061.88;2615157;36;20038;-57
2022/10/27 05:45:34;;;;;;;11.10;4.32;;;;;;;14.94;100.00;102069.06;2615183;36;20412;-58
2022/10/27 05:48:04;;;;;;;7.53;4.32;;;;;;;15.02;100.00;102056.53;2616115;36;20041;-58
2022/10/27 05:50:33;;;;;;;9.60;4.63;;;;;;;14.98;100.00;102056.94;2616548;36;20034;-58
2022/10/27 05:53:02;;;;;;;6.82;4.35;;;;;;;14.99;100.00;102062.22;2615945;36;20042;-57
2022/10/27 05:55:30;;;;;;;10.07;4.40;;;;;;;14.91;100.00;102069.31;2615513;36;20039;-58
2022/10/27 05:58:00;;;;;;;7.43;4.20;;;;;;;15.00;100.00;102069.38;2616310;36;20655;-59
2022/10/27 06:00:30;;;;;;;11.18;5.55;;;;;;;15.02;100.00;102061.13;2615780;36;20030;-58
2022/10/27 06:03:03;;;;;;;10.77;4.57;;;;;;;14.95;100.00;102065.34;2615716;36;20189;-58
2022/10/27 06:05:33;;;;;;;7.57;4.55;;;;;;;14.97;100.00;102069.66;2615900;31;20571;-58
2022/10/27 06:08:01;;;;;;;8.18;3.55;;;;;;;14.97;100.00;102066.06;2616422;36;20535;-58
2022/10/27 06:10:30;;;;;;;5.07;2.70;;;;;;;14.95;100.00;102066.22;2616021;36;20447;-57
2022/10/27 06:13:05;;;;;;;9.23;3.97;;;;;;;14.95;100.00;102059.94;2613915;36;20114;-56
2022/10/27 06:15:34;;;;;;;6.82;3.42;;;;;;;14.85;100.00;102055.31;2614455;36;20034;-59
2022/10/27 06:18:06;;;;;;;4.50;2.97;;;;;;;15.02;100.00;102059.25;2616348;36;20034;-58
2022/10/27 06:20:34;;;;;;;7.40;3.13;;;;;;;15.02;100.00;102056.53;2616368;36;20023;-58
2022/10/27 06:23:02;;;;;;;4.50;2.97;;;;;;;15.06;100.00;102054.41;2616125;36;20027;-58
2022/10/27 06:25:31;;;;;;;5.45;2.92;;;;;;;15.13;100.00;102054.72;2615494;36;20034;-58
2022/10/27 06:27:59;;;;;;;5.30;2.75;;;;;;;15.06;100.00;102062.53;2616395;36;20035;-58
2022/10/27 06:30:27;;;;;;;4.25;2.45;;;;;;;15.12;100.00;102061.13;2615466;36;20065;-57
2022/10/27 06:32:56;;;;;;;5.88;2.58;;;;;;;15.18;100.00;102052.44;2616137;36;20022;-58
2022/10/27 06:35:27;;;;;;;4.07;2.57;;;;;;;15.10;100.00;102047.72;2615666;31;20555;-59
2022/10/27 06:37:55;;;;;;;6.72;2.58;;;;;;;15.06;100.00;102052.56;2613887;36;20042;-59
2022/10/27 06:40:23;;;;;;;4.03;2.20;;;;;;;15.10;100.00;102047.72;2613911;36;20038;-58
2022/10/27 06:42:52;;;;;;;4.95;2.40;;;;;;;15.29;100.00;102052.34;2615686;36;20598;-56
2022/10/27 06:45:21;;;;;;;4.80;2.10;;;;;;;15.17;100.00;102058.88;2614990;36;20045;-56
2022/10/27 06:47:57;;;;;;;6.15;2.50;;;;;;;15.23;100.00;102052.91;2614930;36;20307;-57
2022/10/27 06:50:28;;;;;;;5.53;2.10;;;;;;;15.29;100.00;102051.50;2615161;36;20023;-57
2022/10/27 06:52:57;;;;;;;7.82;2.30;;;;;;;15.29;100.00;102049.63;2613514;36;20042;-56
2022/10/27 06:55:26;;;;;;;5.72;2.20;;;;;;;15.31;100.00;102042.25;2591627;36;20438;-57
2022/10/27 06:57:55;;;;;;;4.22;1.88;;;;;;;15.30;100.00;102043.22;2614076;36;20035;-57
2022/10/27 07:00:23;;;;;;;5.28;2.30;;;;;;;15.48;100.00;102045.28;2613716;31;20594;-58
2022/10/27 07:02:52;;;;;;;5.57;1.90;;;;;;;15.47;100.00;102043.56;2614215;36;20657;-57
2022/10/27 07:05:21;;;;;;;7.20;1.90;;;;;;;15.64;100.00;102033.88;2614307;36;20038;-57
2022/10/27 07:07:53;;;;;;;7.07;2.00;;;;;;;15.51;100.00;102036.84;2614635;36;20034;-57
2022/10/27 07:10:22;;;;;;;4.13;1.98;;;;;;;15.56;100.00;102042.69;2614598;36;20069;-57
2022/10/27 07:12:58;;;;;;;7.60;2.03;;;;;;;15.62;100.00;102035.88;2615933;36;20069;-57
2022/10/27 07:15:30;;;;;;;4.18;1.83;;;;;;;15.62;100.00;102033.16;2615262;36;20045;-57
2022/10/27 07:17:59;;;;;;;5.47;1.60;;;;;;;15.70;100.00;102028.72;2615059;36;20033;-57
2022/10/27 07:20:29;;;;;;;3.83;1.50;;;;;;;15.83;100.00;102028.50;2614958;31;20042;-57
2022/10/27 07:23:00;;;;;;;;;;;;;;;15.87;100.00;102039.91;2613260;31;20057;-56
2022/10/27 07:25:29;;;;;;;3.72;1.63;;;;;;;15.79;100.00;102037.91;2615894;31;19947;-57
2022/10/27 07:27:57;;;;;;;;;;;;;;;15.99;100.00;102037.91;2616149;36;20566;-56
2022/10/27 07:30:28;;;;;;;4.72;1.52;;;;;;;16.03;100.00;102026.66;2616661;36;20370;-57
2022/10/27 07:32:57;;;;;;;3.63;1.48;;;;;;;15.96;100.00;102021.91;2616475;31;20029;-57
2022/10/27 07:35:25;;;;;;;4.68;1.67;;;;;;;16.04;100.00;102022.91;2615377;36;20029;-57
2022/10/27 07:37:54;;;;;;;3.42;1.50;;;;;;;16.13;100.00;102021.19;2616656;36;20034;-56
2022/10/27 07:40:25;;;;;;;4.07;1.55;;;;;;;16.14;100.00;102022.94;2616269;36;20035;-57
2022/10/27 07:42:55;;;;;;;4.43;1.50;;;;;;;16.08;100.00;102027.06;2615623;36;21144;-57
2022/10/27 07:45:25;;;;;;;3.05;1.30;;;;;;;16.00;100.00;102021.47;2615290;36;20041;-56
2022/10/27 07:47:55;;;;;;;2.92;1.30;;;;;;;15.84;100.00;102023.91;2616148;36;20029;-58
2022/10/27 07:50:26;;;;;;;2.38;1.40;;;;;;;15.89;100.00;102027.06;2615211;36;20034;-58
2022/10/27 07:52:55;;;;;;;2.72;1.20;;;;;;;15.91;100.00;102034.06;2614593;36;20888;-57
2022/10/27 07:55:27;;;;;;;4.75;1.40;;;;;;;15.99;100.00;102027.06;2608287;36;20081;-57
2022/10/27 07:58:02;;;;;;;4.57;1.45;;;;;;;15.95;100.00;102026.50;2616719;36;20038;-57
2022/10/27 08:00:32;;;;;;;3.15;1.40;;;;;;;16.01;100.00;102027.78;2606479;36;20061;-57
2022/10/27 08:03:01;;;;;;;2.25;1.17;;;;;;;16.04;100.00;102036.50;2616798;36;20033;-57
2022/10/27 08:05:29;;;;;;;4.20;1.45;;;;;;;15.97;100.00;102032.63;2616081;36;20035;-58
2022/10/27 08:08:02;;;;;;;4.30;1.35;;;;;;;16.14;100.00;102036.50;2616523;36;20440;-57
2022/10/27 08:10:34;;;;;;;7.22;1.73;;;;;;;16.09;100.00;102031.50;2615013;36;20635;-57
2022/10/27 08:13:02;;;;;;;6.97;1.83;;;;;;;16.08;100.00;102037.94;2615706;31;20034;-58
2022/10/27 08:15:31;;;;;;;2.13;1.50;;;;;;;16.29;100.00;102036.91;2616617;31;20438;-57
2022/10/27 08:18:02;;;;;;;2.00;1.17;;;;;;;16.27;100.00;102049.78;2616872;36;20045;-57
2022/10/27 08:20:32;;;;;;;4.55;1.58;;;;;;;16.50;100.00;102046.75;2616825;36;20034;-57
2022/10/27 08:23:02;;;;;;;2.22;1.40;;;;;;;16.52;100.00;102047.44;2616263;36;20041;-57
2022/10/27 08:25:34;;;;;;;4.43;1.45;;;;;;;16.79;100.00;102052.13;2615787;36;20030;-57
2022/10/27 08:28:02;;;;;;;3.10;1.70;;;;;;;16.88;100.00;102036.81;2616250;36;20022;-56
2022/10/27 08:30:32;;;;;;;4.55;1.48;;;;;;;16.79;100.00;102039.38;2615150;36;20039;-56
2022/10/27 08:33:02;;;;;;;8.20;1.50;;;;;;;16.91;100.00;102033.78;2615443;36;20034;-58
2022/10/27 08:35:32;;;;;;;2.92;1.30;;;;;;;17.04;100.00;102034.31;2616579;31;20022;-57
2022/10/27 08:38:02;;;;;;;3.50;1.60;;;;;;;17.09;100.00;102034.72;2616230;31;20081;-57
2022/10/27 08:40:41;;;;;;;3.75;1.13;;;;;;;17.13;100.00;102030.66;2615981;36;20039;-57
2022/10/27 08:43:29;;;;;;;3.35;1.50;;;;;;;17.43;100.00;102025.94;2616404;36;20077;-58
2022/10/27 08:46:03;;;;;;;5.38;1.30;;;;;;;17.49;100.00;102033.50;2615817;36;20034;-58
2022/10/27 08:48:34;;;;;;;5.85;1.50;;;;;;;17.34;100.00;102037.72;2615443;36;20042;-58
2022/10/27 08:51:03;;;;;;;2.03;1.40;;;;;;;17.40;100.00;102026.25;2617510;31;20035;-58
2022/10/27 08:53:35;;;;;;;7.22;1.38;;;;;;;17.36;100.00;102018.50;2614705;36;20035;-57
2022/10/27 08:56:10;;;;;;;2.75;1.25;;;;;;;17.56;100.00;102017.38;2613552;36;20659;-57
2022/10/27 08:58:40;;;;;;;4.25;1.20;;;;;;;17.88;100.00;102012.44;2613351;36;20038;-58
2022/10/27 09:01:22;;;;;;;3.35;1.20;;;;;;;17.85;100.00;102000.81;2602246;36;20038;-58
2022/10/27 09:04:11;;;;;;;4.50;1.15;;;;;;;18.11;100.00;102000.06;2584122;36;20031;-58
2022/10/27 09:06:49;;;;;;;2.88;1.40;;;;;;;18.12;100.00;102000.91;2585299;36;20041;-58
2022/10/27 09:09:28;;;;;;;4.07;1.30;;;;;;;18.16;100.00;101997.72;2585488;36;20633;-58
2022/10/27 09:12:09;;;;;;;4.10;1.50;;;;;;;18.15;100.00;101989.69;2585387;36;20046;-58
2022/10/27 09:15:01;;;;;;;2.85;1.13;;;;;;;18.18;100.00;101998.44;2587711;31;20685;-57
2022/10/27 09:17:34;;;;;;;4.10;1.38;;;;;;;18.31;100.00;101994.41;2587725;36;20061;-58
2022/10/27 09:20:10;;;;;;;3.08;1.00;;;;;;;18.54;100.00;101984.69;2585457;31;20042;-58
2022/10/27 09:22:43;;;;;;;3.63;1.40;;;;;;;18.58;100.00;101968.88;2585227;31;20039;-58
2022/10/27 09:25:19;;;;;;;3.65;1.30;;;;;;;18.74;100.00;101981.72;2585951;31;20039;-58
2022/10/27 09:27:55;;;;;;;4.82;1.83;;;;;;;18.60;100.00;101971.44;2586577;36;20239;-58
2022/10/27 09:30:24;;;;;;;2.05;1.08;;;;;;;18.84;100.00;101973.44;2584181;36;20030;-57
2022/10/27 09:32:57;;;;;;;3.13;1.02;;;;;;;18.74;100.00;101976.25;2584066;36;20065;-57
2022/10/27 09:35:27;;;;;;;3.95;1.40;;;;;;;18.69;100.00;101965.84;2586629;36;20030;-58
2022/10/27 09:37:56;;;;;;;2.72;0.95;;;;;;;18.88;100.00;101966.66;2584770;36;20038;-57
2022/10/27 09:40:26;;;;;;;1.90;1.25;;;;;;;18.86;100.00;101965.94;2585908;36;20042;-58
2022/10/27 09:42:59;;;;;;;2.53;1.10;;;;;;;18.84;100.00;101957.91;2584194;31;20799;-57
2022/10/27 09:45:29;;;;;;;2.65;1.25;;;;;;;18.74;100.00;101968.09;2583453;36;21174;-58
2022/10/27 09:48:01;;;;;;;4.35;1.30;;;;;;;18.53;100.00;101966.63;2585133;31;20042;-57
2022/10/27 09:50:35;;;;;;;2.33;1.38;;;;;;;18.70;100.00;101955.81;2583967;36;20037;-57
2022/10/27 09:53:04;;;;;;;2.28;1.35;;;;;;;18.65;100.00;101961.72;2584729;36;20042;-57
2022/10/27 09:55:50;;;;;;;3.45;1.50;;;;;;;18.57;100.00;101953.53;2585365;36;20046;-57
2022/10/27 09:58:21;;;;;;;2.47;1.27;;;;;;;18.49;100.00;101951.63;2613754;36;20034;-57
2022/10/27 10:00:58;;;;;;;3.05;1.23;;;;;;;18.59;100.00;101951.47;2614451;36;20030;-57
2022/10/27 10:03:26;;;;;;;3.10;1.40;;;;;;;18.67;100.00;101939.78;2608105;36;20523;-57
2022/10/27 10:06:00;;;;;;;3.08;0.98;;;;;;;18.70;100.00;101951.22;2616132;36;20038;-56
2022/10/27 10:08:30;;;;;;;3.88;1.40;;;;;;;18.58;100.00;101944.34;2609137;36;20649;-58
2022/10/27 10:11:00;;;;;;;3.30;1.13;;;;;;;18.88;100.00;101942.97;2615680;36;20045;-57
2022/10/27 10:13:32;;;;;;;3.45;1.00;;;;;;;18.78;100.00;101936.75;2615667;36;20042;-57
2022/10/27 10:16:10;;;;;;;1.45;1.10;;;;;;;18.74;100.00;101938.97;2614251;36;20046;-57
2022/10/27 10:18:42;;;;;;;2.05;1.20;;;;;;;18.74;100.00;101943.53;2615669;36;20027;-57
2022/10/27 10:21:12;;;;;;;4.32;1.20;;;;;;;19.06;100.00;101934.66;2614155;36;20134;-57
2022/10/27 10:23:52;;;;;;;2.58;1.20;;;;;;;19.11;100.00;101942.38;2615535;36;20424;-57
2022/10/27 10:26:22;;;;;;;2.85;1.08;;;;;;;19.09;100.00;101944.41;2615512;36;20035;-57
2022/10/27 10:28:56;;;;;;;4.78;1.55;;;;;;;19.00;100.00;101945.41;2615697;36;20034;-57
2022/10/27 10:31:28;;;;;;;2.17;1.23;;;;;;;19.17;100.00;101941.69;2614159;31;20034;-58
2022/10/27 10:34:04;;;;;;;5.28;1.73;;;;;;;19.05;100.00;101929.38;2613818;36;20031;-57
2022/10/27 10:36:36;;;;;;;3.92;1.30;;;;;;;19.20;100.00;101930.44;2615604;36;20039;-57
2022/10/27 10:39:22;;;;;;;2.97;1.15;;;;;;;19.23;100.00;101919.19;2615340;36;20034;-58
2022/10/27 10:42:14;;;;;;;4.10;1.20;;;;;;;19.54;100.00;101904.06;2613258;36;20042;-58
2022/10/27 10:44:45;;;;;;;3.92;1.20;;;;;;;19.56;100.00;101897.38;2614408;36;21447;-56
2022/10/27 10:47:27;;;;;;;4.25;1.20;;;;;;;19.28;100.00;101891.38;2615636;36;20030;-56
2022/10/27 10:49:58;;;;;;;1.88;1.13;;;;;;;19.47;100.00;101883.91;2616174;36;20030;-57
2022/10/27 10:52:34;;;;;;;3.40;1.13;;;;;;;19.45;100.00;101873.16;2615980;36;20030;-57
2022/10/27 10:55:07;;;;;;;4.63;1.10;;;;;;;19.53;100.00;101880.50;2615362;36;20034;-58
2022/10/27 10:57:39;;;;;;;3.40;1.42;;;;;;;19.48;100.00;101893.78;2615846;36;20030;-58
2022/10/27 11:00:18;;;;;;;2.85;1.20;;;;;;;19.49;100.00;101888.16;2616218;36;20063;-57
2022/10/27 11:02:55;;;;;;;6.53;1.10;;;;;;;19.55;100.00;101890.22;2617547;36;20471;-58
2022/10/27 11:05:26;;;;;;;3.40;1.00;;;;;;;19.72;100.00;101888.34;2616865;36;20443;-58
2022/10/27 11:07:56;;;;;;;2.03;1.15;;;;;;;19.78;100.00;101884.94;2608806;36;20567;-58
2022/10/27 11:10:29;;;;;;;5.70;1.23;;;;;;;19.84;100.00;101891.59;2614399;31;20458;-58
2022/10/27 11:13:01;;;;;;;2.10;1.17;;;;;;;19.93;100.00;101886.97;2610098;31;20085;-57
2022/10/27 11:15:36;;;;;;;2.45;1.20;;;;;;;19.69;100.00;101883.22;2616010;36;20034;-57
2022/10/27 11:18:15;;;;;;;2.55;1.20;;;;;;;19.75;100.00;101874.34;2615031;36;20034;-57
2022/10/27 11:20:46;;;;;;;3.65;1.15;;;;;;;19.75;100.00;101877.06;2616554;36;20042;-57
2022/10/27 11:23:20;;;;;;;3.78;1.15;;;;;;;19.88;100.00;101882.03;2615542;36;20440;-58
2022/10/27 11:25:49;;;;;;;4.35;1.23;;;;;;;19.82;100.00;101877.28;2615587;36;20566;-58
2022/10/27 11:28:19;;;;;;;;;;;;;;;19.81;100.00;101875.56;2616381;36;20056;-57
2022/10/27 11:30:54;;;;;;;3.53;1.10;;;;;;;19.82;100.00;101869.06;2614521;36;19957;-58
2022/10/27 11:33:27;;;;;;;4.43;1.30;;;;;;;19.63;100.00;101870.25;2600566;36;20054;-57